createdAt,value
2017-10-19T00:00:04.942Z,24.70
2017-10-19T00:01:04.937Z,15.70
2017-10-19T00:02:04.939Z,9.70
2017-10-19T00:03:04.944Z,11.90
2017-10-19T00:04:04.951Z,16.50
2017-10-19T00:05:04.947Z,11.90
2017-10-19T00:06:04.947Z,13.60
2017-10-19T00:07:04.947Z,11.00
2017-10-19T00:08:04.947Z,17.70
2017-10-19T00:09:04.954Z,13.90
2017-10-19T00:10:04.953Z,9.30
2017-10-19T00:11:04.958Z,16.10
2017-10-19T00:12:04.958Z,11.90
2017-10-19T00:13:04.956Z,13.70
2017-10-19T00:14:04.967Z,11.70
2017-10-19T00:15:04.969Z,12.10
2017-10-19T00:16:04.964Z,14.30
2017-10-19T00:17:04.963Z,16.30
2017-10-19T00:18:04.963Z,15.40
2017-10-19T00:19:04.963Z,14.60
2017-10-19T00:20:04.973Z,16.20
2017-10-19T00:21:04.967Z,12.10
2017-10-19T00:22:04.972Z,17.00
2017-10-19T00:23:04.974Z,15.40
2017-10-19T00:24:04.973Z,16.00
2017-10-19T00:25:04.973Z,18.00
2017-10-19T00:26:04.973Z,17.60
2017-10-19T00:27:04.980Z,12.50
2017-10-19T00:28:04.976Z,14.80
2017-10-19T00:29:04.983Z,17.90
2017-10-19T00:30:04.981Z,18.70
2017-10-19T00:31:04.984Z,19.00
2017-10-19T00:32:04.984Z,17.40
2017-10-19T00:33:04.994Z,19.30
2017-10-19T00:34:04.989Z,18.20
2017-10-19T00:35:04.992Z,23.20
2017-10-19T00:36:04.996Z,14.30
2017-10-19T00:37:04.993Z,16.60
2017-10-19T00:38:04.993Z,23.40
2017-10-19T00:39:04.996Z,19.80
2017-10-19T00:40:04.993Z,16.30
2017-10-19T00:41:04.997Z,15.40
2017-10-19T00:42:05.003Z,14.80
2017-10-19T00:43:05.000Z,10.30
2017-10-19T00:44:05.002Z,22.40
2017-10-19T00:45:05.002Z,15.60
2017-10-19T00:46:05.006Z,12.20
2017-10-19T00:47:05.016Z,14.40
2017-10-19T00:48:05.008Z,13.30
2017-10-19T00:49:05.007Z,15.80
2017-10-19T00:50:05.009Z,13.80
2017-10-19T00:51:05.011Z,18.30
2017-10-19T00:52:05.020Z,16.10
2017-10-19T00:53:05.015Z,19.20
2017-10-19T00:54:05.019Z,18.10
2017-10-19T00:55:05.017Z,19.50
2017-10-19T00:56:05.019Z,18.00
2017-10-19T00:57:05.029Z,14.00
2017-10-19T00:58:05.026Z,18.00
2017-10-19T00:59:05.026Z,17.80
2017-10-19T01:00:05.025Z,22.00
2017-10-19T01:01:05.036Z,16.90
2017-10-19T01:02:05.031Z,17.40
2017-10-19T01:03:05.029Z,15.70
2017-10-19T01:04:05.037Z,17.90
2017-10-19T01:05:05.035Z,16.50
2017-10-19T01:06:05.035Z,17.70
2017-10-19T01:07:05.043Z,17.90
2017-10-19T01:08:05.041Z,20.20
2017-10-19T01:09:05.042Z,18.10
2017-10-19T01:10:05.047Z,15.30
2017-10-19T01:11:05.044Z,13.20
2017-10-19T01:12:05.044Z,15.10
2017-10-19T01:13:05.052Z,22.40
2017-10-19T01:14:05.054Z,15.60
2017-10-19T01:15:05.058Z,18.20
2017-10-19T01:16:05.054Z,16.60
2017-10-19T01:17:05.056Z,17.10
2017-10-19T01:18:05.058Z,17.90
2017-10-19T01:19:05.062Z,12.20
2017-10-19T01:20:05.064Z,19.60
2017-10-19T01:21:05.066Z,15.80
2017-10-19T01:22:05.066Z,18.40
2017-10-19T01:23:05.067Z,15.60
2017-10-19T01:24:05.071Z,14.90
2017-10-19T01:25:05.083Z,24.40
2017-10-19T01:26:05.077Z,18.00
2017-10-19T01:27:05.082Z,20.90
2017-10-19T01:28:05.078Z,16.60
2017-10-19T01:29:05.078Z,13.40
2017-10-19T01:30:05.087Z,22.90
2017-10-19T01:31:05.086Z,14.90
2017-10-19T01:32:05.085Z,27.20
2017-10-19T01:33:05.088Z,24.30
2017-10-19T01:34:05.098Z,24.10
2017-10-19T01:35:05.089Z,22.70
2017-10-19T01:36:05.093Z,16.80
2017-10-19T01:37:05.096Z,22.40
2017-10-19T01:38:05.095Z,20.20
2017-10-19T01:39:05.098Z,23.10
2017-10-19T01:40:05.104Z,17.90
2017-10-19T01:41:05.104Z,20.70
2017-10-19T01:42:05.106Z,16.60
2017-10-19T01:43:05.107Z,21.90
2017-10-19T01:44:05.108Z,28.90
2017-10-19T01:45:05.114Z,15.70
2017-10-19T01:46:05.121Z,19.60
2017-10-19T01:47:05.114Z,15.70
2017-10-19T01:48:05.125Z,22.70
2017-10-19T01:49:05.120Z,22.00
2017-10-19T01:50:05.122Z,17.20
2017-10-19T01:51:05.127Z,16.80
2017-10-19T01:52:05.121Z,17.10
2017-10-19T01:53:05.124Z,15.10
2017-10-19T01:54:05.126Z,18.40
2017-10-19T01:55:05.130Z,19.10
2017-10-19T01:56:05.130Z,21.70
2017-10-19T01:57:05.138Z,22.10
2017-10-19T01:58:05.136Z,23.50
2017-10-19T01:59:05.137Z,22.80
2017-10-19T02:00:05.145Z,22.00
2017-10-19T02:01:05.140Z,17.00
2017-10-19T02:02:05.146Z,23.60
2017-10-19T02:03:05.144Z,24.60
2017-10-19T02:04:05.153Z,22.40
2017-10-19T02:05:05.147Z,17.10
2017-10-19T02:06:05.156Z,20.60
2017-10-19T02:07:05.158Z,21.40
2017-10-19T02:08:05.157Z,24.50
2017-10-19T02:09:05.163Z,17.60
2017-10-19T02:10:05.165Z,22.00
2017-10-19T02:11:05.163Z,16.10
2017-10-19T02:12:05.166Z,20.10
2017-10-19T02:13:05.166Z,16.10
2017-10-19T02:14:05.172Z,19.70
2017-10-19T02:15:05.174Z,21.30
2017-10-19T02:16:05.177Z,15.60
2017-10-19T02:17:05.180Z,22.30
2017-10-19T02:18:05.178Z,28.10
2017-10-19T02:19:05.178Z,18.80
2017-10-19T02:20:05.183Z,20.60
2017-10-19T02:21:05.181Z,22.70
2017-10-19T02:22:05.185Z,26.60
2017-10-19T02:23:05.190Z,19.00
2017-10-19T02:24:05.194Z,21.10
2017-10-19T02:25:05.188Z,21.60
2017-10-19T02:26:05.191Z,22.40
2017-10-19T02:27:05.198Z,20.90
2017-10-19T02:28:05.196Z,21.50
2017-10-19T02:29:05.199Z,18.60
2017-10-19T02:30:05.205Z,19.50
2017-10-19T02:31:05.206Z,16.50
2017-10-19T02:32:05.211Z,21.90
2017-10-19T02:33:05.208Z,24.70
2017-10-19T02:34:05.215Z,14.60
2017-10-19T02:35:05.219Z,18.20
2017-10-19T02:36:05.216Z,23.10
2017-10-19T02:37:05.216Z,22.10
2017-10-19T02:38:05.231Z,22.90
2017-10-19T02:39:05.228Z,22.50
2017-10-19T02:40:05.225Z,23.50
2017-10-19T02:41:05.222Z,16.30
2017-10-19T02:42:05.233Z,22.30
2017-10-19T02:43:05.231Z,24.00
2017-10-19T02:44:05.236Z,18.60
2017-10-19T02:45:05.234Z,14.60
2017-10-19T02:46:05.236Z,25.00
2017-10-19T02:47:05.238Z,21.70
2017-10-19T02:48:05.243Z,22.40
2017-10-19T02:49:05.243Z,16.50
2017-10-19T02:50:05.247Z,22.10
2017-10-19T02:51:05.250Z,16.70
2017-10-19T02:52:05.247Z,16.80
2017-10-19T02:53:05.249Z,15.10
2017-10-19T02:54:05.263Z,17.10
2017-10-19T02:55:05.255Z,21.10
2017-10-19T02:56:05.255Z,22.70
2017-10-19T02:57:05.265Z,15.90
2017-10-19T02:58:05.266Z,15.30
2017-10-19T02:59:05.265Z,23.80
2017-10-19T03:00:05.282Z,13.20
2017-10-19T03:01:05.267Z,16.50
2017-10-19T03:02:05.276Z,22.70
2017-10-19T03:03:05.274Z,24.10
2017-10-19T03:04:05.279Z,17.20
2017-10-19T03:05:05.276Z,20.60
2017-10-19T03:06:05.281Z,22.90
2017-10-19T03:07:05.281Z,16.80
2017-10-19T03:08:05.285Z,16.90
2017-10-19T03:09:05.293Z,23.60
2017-10-19T03:10:05.302Z,18.00
2017-10-19T03:11:05.300Z,16.40
2017-10-19T03:12:05.294Z,16.70
2017-10-19T03:13:05.302Z,15.50
2017-10-19T03:14:05.307Z,16.80
2017-10-19T03:15:05.301Z,22.50
2017-10-19T03:16:05.303Z,14.10
2017-10-19T03:17:05.311Z,18.50
2017-10-19T03:18:05.310Z,21.00
2017-10-19T03:19:05.310Z,21.20
2017-10-19T03:20:05.312Z,20.40
2017-10-19T03:21:05.312Z,18.60
2017-10-19T03:22:05.318Z,20.10
2017-10-19T03:23:05.325Z,23.00
2017-10-19T03:24:05.321Z,18.00
2017-10-19T03:25:05.324Z,20.80
2017-10-19T03:26:05.329Z,19.30
2017-10-19T03:27:05.333Z,18.00
2017-10-19T03:28:05.336Z,18.00
2017-10-19T03:29:05.336Z,15.50
2017-10-19T03:30:05.347Z,20.50
2017-10-19T03:31:05.354Z,25.00
2017-10-19T03:32:05.346Z,17.20
2017-10-19T03:33:05.345Z,19.70
2017-10-19T03:34:05.346Z,20.30
2017-10-19T03:35:05.353Z,24.20
2017-10-19T03:36:05.354Z,23.50
2017-10-19T03:37:05.353Z,16.20
2017-10-19T03:38:05.362Z,16.80
2017-10-19T03:39:05.361Z,20.30
2017-10-19T03:40:05.365Z,16.90
2017-10-19T03:41:05.365Z,21.50
2017-10-19T03:42:05.370Z,16.20
2017-10-19T03:43:05.367Z,21.30
2017-10-19T03:44:05.371Z,16.70
2017-10-19T03:45:05.376Z,21.40
2017-10-19T03:46:05.380Z,15.70
2017-10-19T03:47:05.388Z,22.90
2017-10-19T03:48:05.383Z,21.00
2017-10-19T03:49:05.385Z,20.60
2017-10-19T03:50:05.393Z,21.20
2017-10-19T03:51:05.396Z,24.10
2017-10-19T03:52:05.395Z,17.40
2017-10-19T03:53:05.396Z,21.20
2017-10-19T03:54:05.404Z,16.20
2017-10-19T03:55:05.408Z,24.40
2017-10-19T03:56:05.404Z,19.50
2017-10-19T03:57:05.404Z,17.50
2017-10-19T03:58:05.410Z,18.70
2017-10-19T03:59:05.409Z,16.80
2017-10-19T04:00:05.419Z,13.90
2017-10-19T04:01:05.415Z,27.20
2017-10-19T04:02:05.422Z,18.60
2017-10-19T04:03:05.420Z,21.80
2017-10-19T04:04:05.434Z,19.60
2017-10-19T04:05:05.437Z,19.10
2017-10-19T04:06:05.431Z,20.10
2017-10-19T04:07:05.432Z,14.80
2017-10-19T04:08:05.442Z,21.40
2017-10-19T04:09:05.449Z,20.20
2017-10-19T04:10:05.455Z,13.80
2017-10-19T04:11:05.445Z,23.20
2017-10-19T04:12:05.444Z,22.20
2017-10-19T04:13:05.447Z,25.40
2017-10-19T04:14:05.454Z,15.80
2017-10-19T04:15:05.460Z,21.70
2017-10-19T04:16:05.455Z,21.50
2017-10-19T04:17:05.458Z,27.10
2017-10-19T04:18:05.470Z,22.70
2017-10-19T04:19:05.465Z,22.00
2017-10-19T04:20:05.466Z,15.80
2017-10-19T04:21:05.469Z,22.50
2017-10-19T04:22:05.473Z,17.40
2017-10-19T04:23:05.474Z,22.20
2017-10-19T04:24:05.479Z,15.10
2017-10-19T04:25:05.481Z,26.10
2017-10-19T04:26:05.486Z,20.50
2017-10-19T04:27:05.485Z,19.60
2017-10-19T04:28:05.487Z,16.50
2017-10-19T04:29:05.496Z,21.70
2017-10-19T04:30:05.495Z,19.50
2017-10-19T04:31:05.498Z,18.40
2017-10-19T04:32:05.506Z,28.80
2017-10-19T04:33:05.506Z,17.10
2017-10-19T04:34:05.511Z,22.50
2017-10-19T04:35:05.508Z,18.70
2017-10-19T04:36:05.513Z,19.10
2017-10-19T04:37:05.515Z,26.20
2017-10-19T04:38:05.516Z,22.00
2017-10-19T04:39:05.516Z,17.70
2017-10-19T04:40:05.533Z,24.90
2017-10-19T04:41:05.525Z,18.40
2017-10-19T04:42:05.522Z,15.40
2017-10-19T04:43:05.523Z,23.30
2017-10-19T04:44:05.534Z,18.80
2017-10-19T04:45:05.533Z,28.30
2017-10-19T04:46:05.533Z,17.80
2017-10-19T04:47:05.543Z,25.80
2017-10-19T04:48:05.540Z,18.10
2017-10-19T04:49:05.540Z,20.20
2017-10-19T04:50:05.549Z,23.80
2017-10-19T04:51:05.554Z,18.10
2017-10-19T04:52:05.551Z,25.00
2017-10-19T04:53:05.563Z,22.30
2017-10-19T04:54:05.562Z,16.00
2017-10-19T04:55:05.557Z,20.90
2017-10-19T04:56:05.585Z,20.50
2017-10-19T04:57:05.570Z,23.30
2017-10-19T04:58:05.571Z,27.10
2017-10-19T04:59:05.580Z,24.70
2017-10-19T05:00:05.571Z,17.30
2017-10-19T05:01:05.585Z,21.20
2017-10-19T05:02:05.576Z,24.40
2017-10-19T05:03:05.584Z,18.00
2017-10-19T05:04:05.585Z,17.70
2017-10-19T05:05:05.591Z,20.30
2017-10-19T05:06:05.593Z,21.90
2017-10-19T05:07:05.592Z,24.70
2017-10-19T05:08:05.594Z,24.50
2017-10-19T05:09:05.595Z,20.90
2017-10-19T05:10:05.603Z,22.10
2017-10-19T05:11:05.607Z,20.90
2017-10-19T05:12:05.601Z,22.60
2017-10-19T05:13:05.619Z,25.60
2017-10-19T05:14:05.608Z,20.70
2017-10-19T05:15:05.611Z,21.40
2017-10-19T05:16:05.610Z,22.40
2017-10-19T05:17:05.615Z,25.30
2017-10-19T05:18:05.619Z,21.40
2017-10-19T05:19:05.625Z,29.60
2017-10-19T05:20:05.624Z,22.60
2017-10-19T05:21:05.632Z,17.80
2017-10-19T05:22:05.634Z,21.00
2017-10-19T05:23:05.634Z,20.60
2017-10-19T05:24:05.634Z,19.10
2017-10-19T05:25:05.643Z,22.50
2017-10-19T05:26:05.644Z,18.80
2017-10-19T05:27:05.645Z,25.60
2017-10-19T05:28:05.643Z,17.50
2017-10-19T05:29:05.644Z,20.70
2017-10-19T05:30:05.660Z,21.50
2017-10-19T05:31:05.664Z,17.70
2017-10-19T05:32:05.654Z,25.00
2017-10-19T05:33:05.661Z,22.70
2017-10-19T05:34:05.660Z,22.90
2017-10-19T05:35:05.662Z,22.70
2017-10-19T05:36:05.667Z,20.20
2017-10-19T05:37:05.669Z,19.40
2017-10-19T05:39:37.872Z,19.40
2017-10-19T05:40:37.751Z,24.80
2017-10-19T05:41:37.753Z,24.50
2017-10-19T05:42:37.754Z,19.90
2017-10-19T05:43:37.758Z,18.00
2017-10-19T05:44:37.762Z,24.10
2017-10-19T05:45:37.794Z,20.40
2017-10-19T05:46:37.771Z,19.80
2017-10-19T05:47:37.774Z,18.10
2017-10-19T05:48:37.780Z,20.40
2017-10-19T05:49:37.783Z,26.20
2017-10-19T05:50:37.775Z,21.00
2017-10-19T05:51:37.775Z,22.20
2017-10-19T05:52:37.787Z,20.00
2017-10-19T05:53:37.790Z,22.60
2017-10-19T05:54:37.794Z,22.50
2017-10-19T05:55:37.788Z,32.70
2017-10-19T05:56:37.792Z,15.10
2017-10-19T05:57:37.793Z,25.70
2017-10-19T05:58:37.795Z,17.80
2017-10-19T05:59:37.800Z,19.90
2017-10-19T06:00:37.802Z,24.80
2017-10-19T06:01:37.801Z,21.00
2017-10-19T06:02:37.809Z,21.90
2017-10-19T06:03:37.807Z,20.80
2017-10-19T06:04:37.809Z,23.60
2017-10-19T06:05:37.820Z,19.80
2017-10-19T06:06:37.815Z,29.60
2017-10-19T06:07:37.819Z,16.80
2017-10-19T06:08:37.825Z,22.30
2017-10-19T06:09:37.823Z,31.60
2017-10-19T06:10:37.830Z,28.10
2017-10-19T06:11:37.884Z,21.20
2017-10-19T06:12:37.829Z,21.40
2017-10-19T06:13:37.835Z,24.90
2017-10-19T06:14:37.833Z,24.30
2017-10-19T06:15:37.837Z,22.00
2017-10-19T06:16:37.844Z,25.00
2017-10-19T06:17:37.842Z,26.00
2017-10-19T06:18:37.851Z,26.20
2017-10-19T06:19:37.857Z,19.10
2017-10-19T06:20:37.854Z,16.30
2017-10-19T06:21:37.854Z,24.80
2017-10-19T06:22:37.852Z,21.40
2017-10-19T06:23:37.861Z,21.80
2017-10-19T06:24:37.863Z,20.30
2017-10-19T06:25:37.860Z,22.90
2017-10-19T06:26:37.868Z,30.10
2017-10-19T06:27:37.869Z,24.00
2017-10-19T06:28:37.869Z,19.30
2017-10-19T06:29:37.870Z,22.80
2017-10-19T06:30:37.872Z,29.50
2017-10-19T06:31:37.887Z,31.80
2017-10-19T06:32:37.878Z,22.50
2017-10-19T06:33:37.887Z,22.70
2017-10-19T06:34:37.887Z,21.20
2017-10-19T06:35:37.888Z,25.40
2017-10-19T06:36:37.887Z,20.80
2017-10-19T06:37:37.895Z,26.50
2017-10-19T06:38:37.892Z,18.00
2017-10-19T06:39:37.896Z,23.80
2017-10-19T06:40:37.895Z,26.60
2017-10-19T06:41:37.905Z,28.30
2017-10-19T06:42:37.902Z,26.60
2017-10-19T06:43:37.904Z,27.80
2017-10-19T06:44:37.905Z,23.90
2017-10-19T06:45:37.906Z,23.90
2017-10-19T06:46:37.915Z,23.20
2017-10-19T06:47:37.914Z,22.40
2017-10-19T06:48:37.918Z,22.60
2017-10-19T06:49:37.922Z,21.60
2017-10-19T06:50:37.922Z,20.10
2017-10-19T06:51:37.921Z,27.50
2017-10-19T06:52:37.923Z,25.10
2017-10-19T06:53:37.924Z,24.50
2017-10-19T06:54:37.932Z,24.70
2017-10-19T06:55:37.931Z,19.10
2017-10-19T06:56:37.932Z,24.00
2017-10-19T06:57:37.937Z,20.80
2017-10-19T06:58:37.934Z,21.00
2017-10-19T06:59:37.943Z,32.60
2017-10-19T07:00:38.044Z,29.00
2017-10-19T07:01:38.152Z,22.60
2017-10-19T07:02:38.198Z,19.80
2017-10-19T07:03:38.258Z,26.10
2017-10-19T07:04:37.954Z,33.10
2017-10-19T07:05:38.037Z,24.20
2017-10-19T07:06:37.956Z,20.70
2017-10-19T07:07:37.967Z,26.40
2017-10-19T07:08:37.964Z,25.60
2017-10-19T07:09:37.963Z,25.10
2017-10-19T07:10:37.974Z,28.50
2017-10-19T07:11:37.973Z,25.10
2017-10-19T07:12:37.973Z,23.30
2017-10-19T07:13:37.975Z,29.30
2017-10-19T07:14:37.982Z,27.70
2017-10-19T07:15:37.986Z,19.50
2017-10-19T07:16:37.981Z,20.30
2017-10-19T07:17:37.985Z,26.70
2017-10-19T07:18:37.988Z,26.00
2017-10-19T07:19:37.990Z,25.00
2017-10-19T07:20:38.001Z,24.10
2017-10-19T07:21:37.996Z,22.80
2017-10-19T07:22:37.998Z,22.30
2017-10-19T07:23:38.002Z,26.60
2017-10-19T07:24:38.005Z,25.40
2017-10-19T07:25:38.008Z,27.90
2017-10-19T07:26:38.009Z,23.80
2017-10-19T07:27:38.014Z,25.00
2017-10-19T07:28:38.016Z,31.80
2017-10-19T07:29:38.017Z,25.30
2017-10-19T07:30:38.026Z,22.50
2017-10-19T07:31:38.029Z,27.30
2017-10-19T07:32:38.031Z,32.50
2017-10-19T07:33:38.042Z,30.30
2017-10-19T07:34:38.030Z,25.70
2017-10-19T07:35:38.033Z,30.80
2017-10-19T07:36:38.050Z,21.50
2017-10-19T07:37:38.040Z,24.50
2017-10-19T07:38:38.041Z,22.50
2017-10-19T07:39:38.044Z,23.10
2017-10-19T07:40:38.052Z,26.80
2017-10-19T07:41:38.050Z,27.50
2017-10-19T07:42:38.056Z,26.80
2017-10-19T07:43:38.056Z,28.50
2017-10-19T07:44:38.059Z,30.60
2017-10-19T07:45:38.066Z,31.90
2017-10-19T07:46:38.065Z,26.20
2017-10-19T07:47:38.101Z,23.00
2017-10-19T07:48:38.073Z,28.10
2017-10-19T07:49:38.080Z,26.40
2017-10-19T07:50:38.076Z,34.50
2017-10-19T07:51:38.083Z,29.70
2017-10-19T07:52:38.900Z,29.30
2017-10-19T07:53:38.092Z,25.90
2017-10-19T07:54:38.092Z,29.50
2017-10-19T07:55:38.100Z,30.40
2017-10-19T07:56:38.093Z,25.80
2017-10-19T07:57:38.105Z,24.80
2017-10-19T07:58:38.102Z,24.10
2017-10-19T07:59:38.107Z,29.30
2017-10-19T08:00:38.111Z,35.60
2017-10-19T08:01:38.110Z,28.30
2017-10-19T08:02:38.112Z,26.90
2017-10-19T08:03:38.118Z,25.20
2017-10-19T08:04:38.122Z,26.40
2017-10-19T08:05:38.124Z,30.70
2017-10-19T08:06:38.132Z,31.70
2017-10-19T08:07:38.135Z,27.10
2017-10-19T08:08:38.155Z,26.10
2017-10-19T08:09:38.150Z,29.60
2017-10-19T08:10:38.149Z,58.00
2017-10-19T08:11:38.144Z,29.70
2017-10-19T08:12:38.151Z,30.60
2017-10-19T08:13:38.155Z,35.00
2017-10-19T08:14:38.151Z,25.70
2017-10-19T08:15:38.163Z,31.10
2017-10-19T08:16:38.167Z,26.40
2017-10-19T08:17:38.161Z,27.80
2017-10-19T08:18:38.168Z,37.20
2017-10-19T08:19:38.172Z,33.60
2017-10-19T08:20:38.175Z,25.70
2017-10-19T08:21:38.175Z,24.50
2017-10-19T08:22:38.177Z,30.10
2017-10-19T08:23:38.194Z,25.40
2017-10-19T08:24:38.189Z,34.20
2017-10-19T08:25:38.189Z,33.00
2017-10-19T08:26:38.192Z,37.10
2017-10-19T08:27:38.197Z,21.00
2017-10-19T08:28:38.203Z,28.20
2017-10-19T08:29:38.209Z,27.70
2017-10-19T08:30:38.203Z,30.40
2017-10-19T08:31:38.242Z,26.70
2017-10-19T08:32:38.219Z,34.30
2017-10-19T08:33:38.216Z,25.10
2017-10-19T08:34:38.223Z,27.70
2017-10-19T08:35:38.229Z,30.90
2017-10-19T08:36:38.235Z,31.00
2017-10-19T08:37:38.230Z,24.80
2017-10-19T08:38:38.237Z,28.60
2017-10-19T08:39:38.237Z,35.50
2017-10-19T08:40:38.245Z,29.90
2017-10-19T08:41:38.244Z,31.80
2017-10-19T08:42:38.263Z,30.30
2017-10-19T08:43:38.251Z,33.70
2017-10-19T08:44:38.260Z,24.30
2017-10-19T08:45:38.260Z,31.70
2017-10-19T08:46:38.262Z,29.70
2017-10-19T08:47:38.272Z,32.10
2017-10-19T08:48:38.273Z,25.80
2017-10-19T08:49:38.274Z,29.30
2017-10-19T08:50:38.283Z,37.30
2017-10-19T08:51:38.282Z,31.80
2017-10-19T08:52:38.288Z,33.00
2017-10-19T08:53:38.292Z,25.00
2017-10-19T08:54:38.293Z,30.90
2017-10-19T08:55:38.305Z,37.60
2017-10-19T08:56:38.302Z,46.10
2017-10-19T08:57:38.303Z,40.30
2017-10-19T08:58:38.308Z,33.40
2017-10-19T08:59:38.326Z,28.00
2017-10-19T09:00:38.318Z,28.30
2017-10-19T09:01:38.319Z,32.50
2017-10-19T09:02:38.323Z,35.30
2017-10-19T09:03:38.327Z,29.50
2017-10-19T09:04:38.332Z,36.80
2017-10-19T09:05:38.334Z,26.70
2017-10-19T09:06:38.342Z,25.10
2017-10-19T09:07:38.346Z,29.10
2017-10-19T09:08:38.350Z,25.10
2017-10-19T09:09:38.361Z,29.60
2017-10-19T09:10:38.363Z,26.70
2017-10-19T09:11:38.361Z,25.50
2017-10-19T09:12:38.363Z,28.50
2017-10-19T09:13:38.369Z,26.80
2017-10-19T09:14:38.377Z,32.80
2017-10-19T09:15:38.377Z,28.90
2017-10-19T09:16:38.386Z,30.10
2017-10-19T09:17:38.388Z,32.50
2017-10-19T09:18:38.395Z,26.40
2017-10-19T09:19:38.417Z,28.70
2017-10-19T09:20:38.399Z,27.30
2017-10-19T09:21:38.401Z,34.10
2017-10-19T09:22:38.413Z,31.20
2017-10-19T09:23:38.409Z,29.30
2017-10-19T09:24:38.425Z,24.40
2017-10-19T09:25:38.420Z,27.80
2017-10-19T09:26:38.426Z,29.70
2017-10-19T09:27:38.427Z,28.70
2017-10-19T09:28:38.433Z,33.10
2017-10-19T09:29:38.437Z,36.90
2017-10-19T09:30:38.444Z,31.50
2017-10-19T09:31:38.446Z,29.50
2017-10-19T09:32:38.452Z,36.70
2017-10-19T09:33:38.458Z,32.80
2017-10-19T09:34:38.462Z,39.00
2017-10-19T09:35:38.464Z,30.00
2017-10-19T09:36:38.476Z,33.00
2017-10-19T09:37:38.475Z,37.30
2017-10-19T09:38:38.480Z,26.80
2017-10-19T09:39:38.489Z,35.20
2017-10-19T09:40:38.488Z,32.20
2017-10-19T09:41:38.496Z,29.70
2017-10-19T09:42:38.497Z,34.10
2017-10-19T09:43:38.506Z,31.00
2017-10-19T09:44:38.504Z,31.70
2017-10-19T09:45:38.514Z,37.60
2017-10-19T09:46:38.517Z,33.20
2017-10-19T09:47:38.523Z,36.10
2017-10-19T09:48:38.526Z,28.90
2017-10-19T09:49:38.534Z,33.70
2017-10-19T09:50:38.535Z,28.10
2017-10-19T09:51:38.541Z,29.10
2017-10-19T09:52:38.546Z,37.10
2017-10-19T09:53:38.554Z,36.10
2017-10-19T09:54:38.558Z,27.30
2017-10-19T09:55:38.560Z,38.10
2017-10-19T09:56:38.563Z,34.70
2017-10-19T09:57:38.570Z,36.20
2017-10-19T09:58:38.576Z,34.60
2017-10-19T09:59:38.581Z,27.80
2017-10-19T10:00:38.585Z,38.50
2017-10-19T10:01:38.599Z,26.30
2017-10-19T10:02:38.597Z,29.40
2017-10-19T10:03:38.604Z,37.80
2017-10-19T10:04:38.604Z,34.80
2017-10-19T10:05:38.614Z,31.00
2017-10-19T10:06:38.614Z,30.90
2017-10-19T10:09:10.745Z,32.10
2017-10-19T10:10:10.710Z,39.40
2017-10-19T10:11:10.717Z,40.80
2017-10-19T10:12:10.731Z,37.20
2017-10-19T10:13:10.728Z,36.50
2017-10-19T10:14:10.733Z,43.70
2017-10-19T10:15:10.737Z,41.30
2017-10-19T10:16:10.740Z,35.50
2017-10-19T10:17:10.756Z,35.00
2017-10-19T10:18:10.751Z,36.80
2017-10-19T10:19:10.756Z,37.90
2017-10-19T10:20:10.759Z,36.40
2017-10-19T10:21:10.767Z,45.60
2017-10-19T10:22:10.770Z,37.60
2017-10-19T10:23:10.777Z,32.40
2017-10-19T10:24:10.799Z,37.70
2017-10-19T10:25:10.788Z,32.60
2017-10-19T10:26:10.804Z,35.60
2017-10-19T10:27:10.797Z,35.50
2017-10-19T10:28:10.801Z,32.00
2017-10-19T10:29:10.813Z,48.60
2017-10-19T10:30:10.811Z,35.80
2017-10-19T10:31:10.818Z,39.30
2017-10-19T10:32:10.826Z,33.10
2017-10-19T10:33:10.837Z,38.80
2017-10-19T10:34:10.836Z,40.80
2017-10-19T10:35:10.843Z,38.10
2017-10-19T10:36:10.847Z,36.10
2017-10-19T10:37:10.859Z,39.60
2017-10-19T10:38:10.855Z,42.00
2017-10-19T10:39:19.489Z,30.30
2017-10-19T10:41:04.288Z,37.30
2017-10-19T10:42:04.243Z,32.60
2017-10-19T10:43:04.253Z,35.80
2017-10-19T10:44:04.262Z,36.10
2017-10-19T10:45:04.261Z,39.50
2017-10-19T10:46:04.276Z,38.80
2017-10-19T10:47:04.286Z,40.00
2017-10-19T10:48:04.618Z,39.60
2017-10-19T10:49:04.921Z,34.30
2017-10-19T10:50:04.577Z,37.80
2017-10-19T10:51:04.298Z,34.00
2017-10-19T10:52:04.304Z,38.20
2017-10-19T10:53:04.313Z,36.40
2017-10-19T10:54:04.310Z,35.40
2017-10-19T10:55:04.320Z,37.60
2017-10-19T10:56:04.326Z,36.10
2017-10-19T10:57:04.336Z,32.90
2017-10-19T10:58:04.339Z,37.20
2017-10-19T10:59:04.342Z,46.30
2017-10-19T11:00:04.354Z,34.60
2017-10-19T11:01:04.370Z,38.10
2017-10-19T11:02:04.362Z,35.80
2017-10-19T11:03:04.364Z,42.20
2017-10-19T11:04:04.371Z,39.20
2017-10-19T11:05:04.380Z,40.10
2017-10-19T11:06:04.387Z,46.30
2017-10-19T11:07:04.392Z,39.50
2017-10-19T11:08:04.397Z,37.40
2017-10-19T11:09:04.404Z,43.00
2017-10-19T11:10:04.410Z,38.90
2017-10-19T11:11:04.412Z,41.30
2017-10-19T11:12:04.418Z,32.70
2017-10-19T11:13:04.433Z,34.30
2017-10-19T11:14:04.436Z,42.90
2017-10-19T11:15:04.437Z,35.70
2017-10-19T11:16:04.451Z,38.90
2017-10-19T11:17:04.478Z,44.20
2017-10-19T11:18:04.463Z,39.50
2017-10-19T11:19:04.481Z,36.20
2017-10-19T11:20:04.480Z,36.40
2017-10-19T11:21:04.474Z,39.30
2017-10-19T11:22:04.481Z,45.00
2017-10-19T11:23:04.488Z,40.90
2017-10-19T11:24:04.492Z,41.10
2017-10-19T11:25:04.499Z,40.20
2017-10-19T11:26:04.511Z,41.40
2017-10-19T11:27:04.513Z,41.50
2017-10-19T11:28:04.514Z,38.70
2017-10-19T11:29:04.525Z,39.80
2017-10-19T11:30:04.532Z,43.20
2017-10-19T11:31:04.536Z,38.10
2017-10-19T11:32:04.545Z,41.20
2017-10-19T11:33:04.575Z,40.30
2017-10-19T11:34:04.553Z,37.70
2017-10-19T11:35:04.561Z,39.40
2017-10-19T11:36:04.570Z,37.70
2017-10-19T11:37:04.576Z,37.60
2017-10-19T11:38:04.582Z,43.70
2017-10-19T11:39:04.585Z,41.10
2017-10-19T11:40:04.594Z,47.20
2017-10-19T11:41:04.607Z,42.20
2017-10-19T11:42:04.605Z,40.70
2017-10-19T11:43:04.614Z,41.00
2017-10-19T11:44:04.622Z,43.00
2017-10-19T11:45:04.625Z,40.40
2017-10-19T11:46:04.643Z,38.80
2017-10-19T11:47:04.643Z,42.40
2017-10-19T11:48:04.644Z,40.90
2017-10-19T11:49:04.655Z,42.10
2017-10-19T11:50:04.665Z,36.20
2017-10-19T11:51:04.663Z,43.00
2017-10-19T11:52:04.671Z,43.80
2017-10-19T11:53:04.677Z,38.70
2017-10-19T11:54:04.683Z,42.80
2017-10-19T11:55:04.690Z,42.70
2017-10-19T11:56:04.702Z,41.10
2017-10-19T11:57:04.718Z,40.90
2017-10-19T11:58:04.714Z,42.70
2017-10-19T11:59:04.721Z,39.30
2017-10-19T12:00:04.723Z,41.10
2017-10-19T12:01:04.739Z,40.40
2017-10-19T12:02:04.739Z,40.30
2017-10-19T12:03:04.746Z,42.20
2017-10-19T12:04:04.775Z,40.90
2017-10-19T12:05:04.760Z,49.80
2017-10-19T12:06:04.761Z,39.10
2017-10-19T12:07:04.769Z,43.60
2017-10-19T12:08:04.777Z,46.90
2017-10-19T12:09:04.790Z,37.80
2017-10-19T12:10:04.803Z,47.10
2017-10-19T12:11:04.797Z,42.50
2017-10-19T12:12:04.805Z,43.40
2017-10-19T12:13:04.812Z,39.30
2017-10-19T12:14:04.818Z,33.30
2017-10-19T12:15:04.834Z,44.20
2017-10-19T12:16:04.837Z,43.40
2017-10-19T12:17:04.845Z,43.60
2017-10-19T12:18:04.846Z,42.60
2017-10-19T12:19:04.853Z,43.10
2017-10-19T12:20:04.861Z,44.10
2017-10-19T12:21:04.864Z,56.40
2017-10-19T12:22:04.870Z,46.20
2017-10-19T12:23:04.882Z,43.90
2017-10-19T12:24:05.191Z,43.10
2017-10-19T12:25:04.894Z,38.00
2017-10-19T12:26:04.908Z,42.70
2017-10-19T12:27:04.918Z,42.80
2017-10-19T12:28:04.920Z,48.10
2017-10-19T12:29:04.920Z,46.00
2017-10-19T12:30:04.927Z,44.00
2017-10-19T12:31:04.935Z,41.00
2017-10-19T12:32:04.943Z,41.80
2017-10-19T12:33:04.953Z,45.90
2017-10-19T12:34:04.967Z,47.50
2017-10-19T12:35:04.964Z,46.90
2017-10-19T12:36:04.969Z,44.90
2017-10-19T12:37:04.979Z,47.60
2017-10-19T12:38:04.988Z,41.10
2017-10-19T12:39:05.782Z,46.90
2017-10-19T12:40:04.997Z,47.00
2017-10-19T12:41:05.004Z,49.60
2017-10-19T12:42:05.015Z,44.30
2017-10-19T12:43:05.026Z,50.60
2017-10-19T12:44:05.024Z,47.10
2017-10-19T12:45:05.036Z,45.50
2017-10-19T12:46:05.039Z,49.20
2017-10-19T12:47:05.044Z,47.70
2017-10-19T12:48:05.052Z,46.80
2017-10-19T12:49:05.062Z,52.50
2017-10-19T12:50:05.070Z,51.40
2017-10-19T12:51:05.074Z,51.90
2017-10-19T12:52:05.086Z,47.80
2017-10-19T12:53:05.088Z,48.90
2017-10-19T12:54:05.114Z,46.80
2017-10-19T12:55:05.116Z,47.80
2017-10-19T12:56:05.110Z,45.40